KHON/HON METAR and TAF weather

Enter ICAO airport designator
Station Type Date Time Source
KHON METAR 2020/09/26 20:55 UTC NOAA

KHON 262055Z AUTO 33014G26KT 10SM SCT060 24/11 A2954 RMK AO2 PK WND 32027/2045 SLP998 T02440111 53009


Station Type Date Time Source
KHON Decoded METAR 2020/09/26 20:55 UTC NOAA

HURON REGIONAL AIRPORT, SD, United States (KHON) 44-23N 098-14W 390M
Sep 26, 2020 - 04:55 PM EDT / 2020.09.26 2055 UTC
Wind: from the NNW (330 degrees) at 16 MPH (14 KT) gusting to 30 MPH (26 KT):0
Visibility: 10 mile(s):0
Sky conditions: partly cloudy
Temperature: 75.9 F (24.4 C)
Dew Point: 52.0 F (11.1 C)
Relative Humidity: 43%
Pressure (altimeter): 29.54 in. Hg (1000 hPa)
Pressure tendency: 0.03 inches (0.9 hPa) higher than three hours ago
ob: KHON 262055Z AUTO 33014G26KT 10SM SCT060 24/11 A2954 RMK AO2 PK WND 32027/2045 SLP998 T02440111 53009
cycle: 21

Station Type Date Time Source
KHON TAF 2020/09/26 18:22 UTC NOAA

TAF KHON 261720Z 2618/2718 25012G17KT P6SM BKN200
FM262000 30018G28KT P6SM SCT150
FM270100 29011KT P6SM FEW250
FM271300 29014G27KT P6SM SCT200

Example: see airport list